Chazy, NY

2:58 AM EST on March 04, 2015 (GMT -0500)
Franklin County State | Change Station
CLOSE
Current Station
Airport
Location: Highgate,
Elevation: 226 ft
Nearby Weather Stations

Elev 226 ft 44.94 °N, 73.10 °W | Updated 23 minutes ago

Overcast
Overcast
29 °F
Feels Like 20 °F
N
10
Wind Variable Wind from South
Gusts 18 mph

Today
High -- | Low -- °F
--% Chance of Precip.
Yesterday
High -- | Low -- °F
Precip. -- in
6:26 AM 5:45 PM
Waxing Gibbous, 98% visible
Pressure 29.56 in
Visibility 4.0 miles
Clouds Overcast 2400 ft
Windchill 20 °F
Dew Point 25 °F
Humidity 84%
Rainfall 0.00 in
Snow Depth Not available.
UV 0 out of 12
Pollen .40 out of 12
Air Quality Not available.
Flu Activity Not available.
METAR KFSO 040735Z AUTO 19009G16KT 170V240 4SM -SN OVC024 M02/M04 A2956 RMK AO2 T10161040

More Conditions Fewer Conditions

Pressure 29.56 in
Visibility 4.0 miles
Clouds Overcast 2400 ft
Windchill 20 °F
Dew Point 25 °F
Humidity 84%
Rainfall 0.00 in
Snow Depth Not available.
UV 0 out of 12
Pollen .40 out of 12
Air Quality Not available.
Flu Activity Not available.
METAR KFSO 040735Z AUTO 19009G16KT 170V240 4SM -SN OVC024 M02/M04 A2956 RMK AO2 T10161040

More Conditions Fewer Conditions

10-Day Weather Forecast

Almanac

Astronomy

Mar. 04, 2015 Rise Set
Actual Time
Civil Twilight
Nautical Twilight
Astronomical Twilight
Moon
Length of Visible Light
Length of Day
Tomorrow will be .
, % of the Moon is Illuminated

Today's Extremes

State Highs State Lows

Community

WunderPhotos

Upload Photos

1,802,402 photos uploaded!

WunderBlogs® & News

Nearby

Air Quality

  Air Quality AQ Index Pollutant
Not available.

Snow Depth

Station Depth Elevation

Earthquake Activity

City Distance Mag. Time & Date
Minimum magnitude displayed is 2.5.

Coastal Water Temperatures

Place Temperature

Nearby Weather Stations